Time;durP1;ratioP1;P1;durP2;ratioP2;P2;SDS_P1;SDS_P2;PMS_P1;PMS_P2;Temp;Humidity;BMP_temperature;BMP_pressure;BME280_temperature;BME280_humidity;BME280_pressure;Samples;Min_cycle;Max_cycle;Signal;HPM_P1;HPM_P2
2023/03/30 00:01:50;;;;;;;3.95;2.13;;;;;;;19.27;44.97;100536.84;5014954;28;20897;-73
2023/03/30 00:04:17;;;;;;;5.68;2.25;;;;;;;19.28;45.10;100530.56;5014096;28;20047;-74
2023/03/30 00:06:42;;;;;;;4.25;1.90;;;;;;;19.19;45.16;100522.50;5033369;28;20025;-73
2023/03/30 00:09:08;;;;;;;5.00;2.15;;;;;;;19.28;45.19;100530.56;5039515;28;20056;-75
2023/03/30 00:11:34;;;;;;;4.85;1.92;;;;;;;19.27;45.05;100524.47;5032105;28;20040;-74
2023/03/30 00:14:00;;;;;;;3.40;1.90;;;;;;;19.26;45.31;100512.22;5033172;28;20033;-75
2023/03/30 00:16:26;;;;;;;4.28;1.85;;;;;;;19.28;44.96;100520.00;5036180;28;20037;-75
2023/03/30 00:18:51;;;;;;;3.53;1.80;;;;;;;19.20;44.96;100503.06;5030827;28;20040;-73
2023/03/30 00:21:17;;;;;;;3.88;1.85;;;;;;;19.23;45.19;100514.31;5031901;28;20057;-74
2023/03/30 00:23:46;;;;;;;5.68;1.90;;;;;;;19.24;45.09;100511.53;5037597;28;20029;-74
2023/03/30 00:26:12;;;;;;;5.22;2.15;;;;;;;19.21;45.02;100495.97;5022774;28;20546;-74
2023/03/30 00:28:37;;;;;;;6.05;2.10;;;;;;;19.24;45.06;100505.41;5028250;28;20159;-75
2023/03/30 00:31:03;;;;;;;5.93;2.00;;;;;;;19.22;45.14;100502.91;5031643;28;20162;-74
2023/03/30 00:33:29;;;;;;;4.63;2.10;;;;;;;19.21;45.36;100507.34;5024909;28;20033;-73
2023/03/30 00:35:55;;;;;;;4.22;1.80;;;;;;;19.20;44.95;100494.28;5033704;28;20409;-72
2023/03/30 00:38:22;;;;;;;4.38;1.90;;;;;;;19.20;44.91;100497.78;5036677;28;20041;-73
2023/03/30 00:40:57;;;;;;;3.80;1.95;;;;;;;19.18;45.10;100489.16;5027126;28;20037;-73
2023/03/30 00:43:24;;;;;;;4.50;2.17;;;;;;;19.17;44.81;100474.28;5020988;28;20025;-74
2023/03/30 00:45:50;;;;;;;3.60;1.83;;;;;;;19.16;44.98;100484.97;5035632;28;20033;-74
2023/03/30 00:48:26;;;;;;;4.75;2.15;;;;;;;19.15;45.06;100470.09;5023445;28;20046;-75
2023/03/30 00:51:06;;;;;;;4.75;2.17;;;;;;;19.17;45.11;100462.88;5024545;28;20032;-73
2023/03/30 00:53:45;;;;;;;3.72;1.50;;;;;;;19.16;45.03;100463.84;5029331;28;20075;-73
2023/03/30 00:56:15;;;;;;;4.45;1.90;;;;;;;19.15;44.99;100452.47;5020901;28;20435;-74
2023/03/30 00:58:42;;;;;;;4.43;1.90;;;;;;;19.14;44.94;100450.78;5028907;28;20025;-73
2023/03/30 01:01:11;;;;;;;5.00;1.90;;;;;;;19.16;44.89;100456.75;5033782;28;20037;-74
2023/03/30 01:03:44;;;;;;;4.53;2.05;;;;;;;19.15;44.96;100463.03;5033294;28;21223;-73
2023/03/30 01:06:10;;;;;;;4.03;1.88;;;;;;;19.12;44.84;100447.47;5032623;28;20033;-74
2023/03/30 01:08:36;;;;;;;3.90;1.90;;;;;;;19.12;45.06;100452.75;5037633;28;20041;-73
2023/03/30 01:11:05;;;;;;;5.15;1.85;;;;;;;19.12;45.18;100450.09;5031824;28;20903;-73
2023/03/30 01:13:34;;;;;;;4.25;1.90;;;;;;;19.11;44.79;100443.13;5034799;28;20025;-73
2023/03/30 01:16:12;;;;;;;5.32;2.08;;;;;;;19.11;44.83;100456.34;5043345;28;20037;-73
2023/03/30 01:19:04;;;;;;;3.78;1.80;;;;;;;19.10;45.06;100451.19;5044024;28;20484;-73
2023/03/30 01:21:54;;;;;;;4.82;2.10;;;;;;;19.09;44.77;100455.66;5033426;28;20091;-74
2023/03/30 01:24:30;;;;;;;4.38;2.10;;;;;;;19.09;44.82;100449.53;5034905;28;20065;-73
2023/03/30 01:27:00;;;;;;;4.80;1.70;;;;;;;19.10;44.76;100453.84;5032981;28;20037;-74
2023/03/30 01:29:47;;;;;;;4.85;2.00;;;;;;;19.09;44.87;100455.66;5033341;28;20152;-73
2023/03/30 01:32:35;;;;;;;4.60;1.75;;;;;;;19.08;44.75;100453.97;5030628;28;20045;-72
2023/03/30 01:35:39;;;;;;;3.50;1.75;;;;;;;19.08;44.84;100456.63;5031833;28;20028;-74
2023/03/30 01:38:20;;;;;;;3.70;1.90;;;;;;;19.08;44.70;100455.78;5032515;28;20036;-72
2023/03/30 01:41:15;;;;;;;4.85;1.92;;;;;;;19.08;44.62;100453.16;5029616;28;20513;-72
2023/03/30 01:44:10;;;;;;;3.65;1.80;;;;;;;19.07;44.54;100438.28;5037689;28;20032;-73
2023/03/30 01:46:42;;;;;;;7.10;2.40;;;;;;;19.03;44.71;100432.44;5037086;28;20052;-73
2023/03/30 01:49:27;;;;;;;3.70;1.90;;;;;;;19.05;44.61;100430.50;5031385;28;20060;-74
2023/03/30 01:52:00;;;;;;;;;;;;;;;19.08;44.60;100432.03;5034130;28;20060;-74
2023/03/30 01:54:31;;;;;;;6.43;1.80;;;;;;;19.06;44.51;100436.59;5038570;28;19924;-74
2023/03/30 01:57:14;;;;;;;5.05;1.92;;;;;;;19.07;44.54;100451.47;5033043;28;20069;-74
2023/03/30 01:59:53;;;;;;;4.75;1.90;;;;;;;19.02;44.54;100454.53;5034666;28;20112;-74
2023/03/30 02:02:22;;;;;;;6.68;1.95;;;;;;;19.03;44.59;100448.28;5034074;28;20071;-74
2023/03/30 02:04:52;;;;;;;3.13;1.55;;;;;;;19.03;44.46;100450.94;5033304;28;20474;-73
2023/03/30 02:07:22;;;;;;;4.25;1.80;;;;;;;18.98;44.65;100451.34;5036725;28;20041;-72
2023/03/30 02:09:51;;;;;;;3.17;1.50;;;;;;;19.01;44.57;100458.16;5033741;28;20036;-72
2023/03/30 02:12:18;;;;;;;3.80;1.70;;;;;;;18.97;44.50;100451.50;5032236;28;20033;-74
2023/03/30 02:14:46;;;;;;;4.90;1.90;;;;;;;18.91;44.60;100441.47;5034436;28;20055;-72
2023/03/30 02:17:20;;;;;;;3.78;1.80;;;;;;;18.99;44.71;100454.81;5030495;28;20478;-73
2023/03/30 02:19:45;;;;;;;4.97;2.10;;;;;;;18.97;44.61;100441.75;5032110;28;20741;-72
2023/03/30 02:22:12;;;;;;;5.07;2.08;;;;;;;18.95;44.82;100435.78;5030714;28;20045;-73
2023/03/30 02:24:39;;;;;;;4.55;2.08;;;;;;;18.98;44.59;100446.06;5032266;28;20033;-73
2023/03/30 02:27:05;;;;;;;5.05;1.55;;;;;;;18.97;44.61;100427.72;5032769;28;20200;-74
2023/03/30 02:29:32;;;;;;;4.13;1.88;;;;;;;18.95;44.75;100438.44;5033008;28;20025;-73
2023/03/30 02:31:58;;;;;;;6.07;2.20;;;;;;;18.92;44.67;100443.16;5034521;28;20036;-75
2023/03/30 02:34:42;;;;;;;4.40;1.90;;;;;;;18.94;44.70;100446.47;5032597;28;20461;-74
2023/03/30 02:37:27;;;;;;;4.70;2.03;;;;;;;18.94;44.70;100433.28;5014425;28;20029;-74
2023/03/30 02:40:17;;;;;;;3.85;1.88;;;;;;;18.95;44.71;100435.78;5035970;28;20496;-74
2023/03/30 02:42:45;;;;;;;3.58;1.85;;;;;;;18.97;44.61;100443.56;5034085;28;20037;-74
2023/03/30 02:45:33;;;;;;;4.05;1.73;;;;;;;18.93;44.89;100440.38;5030069;28;20029;-73
2023/03/30 02:48:23;;;;;;;4.45;1.70;;;;;;;18.95;44.55;100445.53;5035235;28;20072;-72
2023/03/30 02:51:03;;;;;;;3.50;1.70;;;;;;;18.95;44.63;100442.88;5031119;28;20044;-73
2023/03/30 02:53:37;;;;;;;5.43;1.73;;;;;;;18.95;44.50;100440.25;5032779;28;20037;-73
2023/03/30 02:56:13;;;;;;;4.25;1.70;;;;;;;18.91;44.58;100429.09;5033457;28;20029;-74
2023/03/30 02:58:46;;;;;;;4.30;1.55;;;;;;;18.92;44.71;100437.88;5033659;28;20045;-74
2023/03/30 03:01:35;;;;;;;4.30;1.75;;;;;;;18.90;44.58;100426.59;5034794;28;20453;-73
2023/03/30 03:04:03;;;;;;;3.83;1.80;;;;;;;18.92;44.58;100430.78;5035820;28;20117;-73
2023/03/30 03:06:31;;;;;;;3.75;1.77;;;;;;;18.88;44.59;100423.28;5033392;28;20477;-72
2023/03/30 03:08:56;;;;;;;3.67;1.83;;;;;;;18.88;44.60;100416.19;5034493;28;20073;-73
2023/03/30 03:11:22;;;;;;;4.88;1.90;;;;;;;18.92;44.49;100427.31;5017466;28;20060;-73
2023/03/30 03:13:47;;;;;;;4.13;1.60;;;;;;;18.90;44.57;100434.53;5031283;28;20050;-73
2023/03/30 03:16:13;;;;;;;4.53;1.73;;;;;;;18.92;44.46;100427.31;5033371;28;20029;-75
2023/03/30 03:18:40;;;;;;;3.80;1.83;;;;;;;18.88;44.59;100421.47;5031912;28;20485;-73
2023/03/30 03:21:07;;;;;;;5.55;1.88;;;;;;;18.86;44.55;100426.06;5039453;28;20445;-74
2023/03/30 03:23:33;;;;;;;4.10;1.73;;;;;;;18.88;44.45;100425.91;5032733;28;20086;-74
2023/03/30 03:25:59;;;;;;;3.70;1.77;;;;;;;18.88;44.89;100410.06;5040874;28;20055;-73
2023/03/30 03:28:24;;;;;;;5.13;1.88;;;;;;;18.90;44.56;100416.91;5040694;28;20129;-73
2023/03/30 03:30:50;;;;;;;4.10;1.85;;;;;;;18.87;44.36;100421.59;5013664;28;20474;-74
2023/03/30 03:33:16;;;;;;;5.25;1.70;;;;;;;18.87;44.62;100421.59;5028302;28;20052;-72
2023/03/30 03:35:44;;;;;;;4.57;1.70;;;;;;;18.90;44.51;100426.59;5033665;28;20029;-72
2023/03/30 03:38:11;;;;;;;3.70;1.75;;;;;;;18.85;44.59;100417.31;5034182;28;20078;-74
2023/03/30 03:40:36;;;;;;;4.38;1.77;;;;;;;18.85;44.52;100409.38;5031610;28;20033;-75
2023/03/30 03:43:01;;;;;;;4.80;1.90;;;;;;;18.88;44.55;100415.34;5031908;28;20540;-75
2023/03/30 03:45:27;;;;;;;5.35;1.60;;;;;;;18.85;44.43;100409.38;5032489;28;20469;-74
2023/03/30 03:47:53;;;;;;;5.10;1.58;;;;;;;18.86;44.58;100412.84;5031556;28;20112;-73
2023/03/30 03:50:18;;;;;;;3.80;1.70;;;;;;;18.88;44.39;100415.34;5035485;28;20112;-74
2023/03/30 03:52:44;;;;;;;5.78;1.83;;;;;;;18.84;44.35;100413.00;5030969;28;20041;-74
2023/03/30 03:55:10;;;;;;;4.75;1.90;;;;;;;18.86;44.40;100412.84;5029506;28;20532;-72
2023/03/30 03:57:35;;;;;;;4.50;1.67;;;;;;;18.85;44.77;100398.81;5031599;28;20491;-74
2023/03/30 04:00:02;;;;;;;4.13;1.90;;;;;;;18.85;44.13;100405.94;5037428;28;20036;-73
2023/03/30 04:02:27;;;;;;;2.95;1.65;;;;;;;18.84;44.34;100413.00;5027022;28;20167;-75
2023/03/30 04:04:52;;;;;;;5.38;1.80;;;;;;;18.84;44.53;100413.00;5036723;28;20111;-74
2023/03/30 04:07:18;;;;;;;4.33;1.73;;;;;;;18.83;44.51;100397.25;5037642;28;20501;-74
2023/03/30 04:09:44;;;;;;;4.22;1.63;;;;;;;18.83;44.40;100392.84;5036186;28;20307;-74
2023/03/30 04:12:09;;;;;;;3.72;1.60;;;;;;;18.83;44.34;100394.63;5049044;28;20021;-75
2023/03/30 04:14:34;;;;;;;4.47;1.90;;;;;;;18.83;44.22;100397.25;5033724;28;20579;-74
2023/03/30 04:17:00;;;;;;;4.15;1.70;;;;;;;18.79;44.21;100391.44;5029705;28;20029;-72
2023/03/30 04:19:26;;;;;;;5.18;2.00;;;;;;;18.81;44.44;100386.84;5032020;28;20076;-73
2023/03/30 04:21:54;;;;;;;3.95;1.75;;;;;;;18.81;44.25;100384.19;5037098;28;20025;-72
2023/03/30 04:24:21;;;;;;;4.60;1.98;;;;;;;18.82;44.35;100379.78;5024880;28;20068;-72
2023/03/30 04:26:47;;;;;;;5.15;1.90;;;;;;;18.82;44.63;100385.06;5012972;28;20196;-74
2023/03/30 04:29:15;;;;;;;4.57;1.90;;;;;;;18.76;44.07;100377.69;5024743;28;20509;-73
2023/03/30 04:31:45;;;;;;;5.20;1.75;;;;;;;18.81;44.38;100383.38;5026037;28;20478;-72
2023/03/30 04:34:11;;;;;;;4.60;1.80;;;;;;;18.80;44.46;100379.06;5032100;28;20037;-72
2023/03/30 04:36:37;;;;;;;5.03;1.80;;;;;;;18.81;44.29;100381.56;5035042;28;20078;-72
2023/03/30 04:39:05;;;;;;;3.72;1.55;;;;;;;18.82;44.43;100379.78;5032161;28;20037;-74
2023/03/30 04:41:32;;;;;;;4.30;1.80;;;;;;;18.81;44.37;100375.44;5034702;28;20030;-74
2023/03/30 04:44:00;;;;;;;4.15;2.35;;;;;;;18.76;44.16;100361.84;5033222;28;20393;-73
2023/03/30 04:46:26;;;;;;;4.20;1.63;;;;;;;18.77;44.38;100361.72;5024960;28;20041;-76
2023/03/30 04:48:51;;;;;;;4.22;1.60;;;;;;;18.76;44.44;100367.94;5034799;28;20113;-73
2023/03/30 04:51:16;;;;;;;4.15;1.70;;;;;;;18.77;44.36;100361.72;5028472;28;20033;-73
2023/03/30 04:53:41;;;;;;;3.60;1.70;;;;;;;18.78;44.05;100360.72;5029911;28;20034;-73
2023/03/30 04:56:07;;;;;;;3.70;1.60;;;;;;;18.76;44.39;100364.50;5039320;28;20109;-73
2023/03/30 04:58:32;;;;;;;4.82;1.95;;;;;;;18.78;44.47;100362.53;5031119;28;20052;-72
2023/03/30 05:00:57;;;;;;;4.32;1.85;;;;;;;18.76;44.42;100370.59;5035531;28;20068;-73
2023/03/30 05:03:23;;;;;;;3.45;1.67;;;;;;;18.77;44.39;100380.19;5036537;28;20046;-72
2023/03/30 05:05:48;;;;;;;3.83;1.98;;;;;;;18.77;44.19;100372.28;5033740;28;20028;-73
2023/03/30 05:08:13;;;;;;;4.15;1.63;;;;;;;18.78;44.36;100387.13;5055832;28;20115;-72
2023/03/30 05:10:39;;;;;;;3.40;1.70;;;;;;;18.75;44.24;100391.84;5032063;28;20572;-73
2023/03/30 05:13:04;;;;;;;3.13;1.35;;;;;;;18.77;44.51;100403.09;5041129;28;20025;-74
2023/03/30 05:15:29;;;;;;;4.15;1.80;;;;;;;18.77;44.65;100411.88;5031733;28;20053;-73
2023/03/30 05:17:55;;;;;;;4.53;1.90;;;;;;;18.78;44.38;100418.78;5035349;28;20041;-73
2023/03/30 05:20:21;;;;;;;3.95;1.65;;;;;;;18.75;44.61;100415.59;5041144;28;20049;-73
2023/03/30 05:22:46;;;;;;;5.30;1.88;;;;;;;18.74;44.52;100421.84;5034723;28;20087;-73
2023/03/30 05:25:11;;;;;;;4.30;1.73;;;;;;;18.73;44.42;100421.03;5035223;28;20032;-74
2023/03/30 05:27:37;;;;;;;7.50;1.67;;;;;;;18.75;44.62;100437.53;5032471;28;20029;-73
2023/03/30 05:30:03;;;;;;;3.92;1.55;;;;;;;18.79;44.62;100431.03;5030625;28;20029;-72
2023/03/30 05:32:29;;;;;;;4.22;1.95;;;;;;;18.77;44.95;100430.34;5040483;28;20037;-73
2023/03/30 05:34:55;;;;;;;3.40;1.40;;;;;;;18.80;44.86;100440.63;5034798;28;20036;-72
2023/03/30 05:37:20;;;;;;;3.90;1.45;;;;;;;18.83;44.91;100443.00;5033089;28;20149;-74
2023/03/30 05:39:46;;;;;;;3.35;1.45;;;;;;;18.83;44.85;100431.59;5029429;28;20116;-73
2023/03/30 05:42:12;;;;;;;3.20;1.50;;;;;;;18.88;45.08;100454.97;5033301;28;20146;-74
2023/03/30 05:44:37;;;;;;;3.47;1.65;;;;;;;18.88;45.01;100445.22;5039731;28;20090;-76
2023/03/30 05:47:03;;;;;;;4.28;1.55;;;;;;;18.89;45.28;100448.72;5027160;28;20638;-69
2023/03/30 05:49:30;;;;;;;4.82;1.55;;;;;;;18.97;45.91;100441.75;5025282;28;20029;-71
2023/03/30 05:51:55;;;;;;;5.80;1.90;;;;;;;19.02;45.89;100436.88;5027071;28;20033;-70
2023/03/30 05:54:21;;;;;;;4.10;1.60;;;;;;;18.99;46.37;100436.31;5030913;28;20037;-69
2023/03/30 05:56:46;;;;;;;7.57;1.60;;;;;;;19.03;46.45;100443.84;5035188;28;20090;-70
2023/03/30 05:59:12;;;;;;;4.72;1.67;;;;;;;19.05;46.76;100456.91;5028672;28;20036;-69
2023/03/30 06:01:38;;;;;;;5.35;1.60;;;;;;;19.10;46.58;100459.13;5024731;28;20045;-71
2023/03/30 06:04:03;;;;;;;5.05;1.70;;;;;;;19.10;46.59;100459.94;5030298;28;20072;-72
2023/03/30 06:06:29;;;;;;;5.93;1.83;;;;;;;19.09;46.76;100460.09;5035485;28;20072;-70
2023/03/30 06:08:54;;;;;;;5.38;1.77;;;;;;;19.10;46.95;100462.59;5042999;28;20065;-69
2023/03/30 06:11:20;;;;;;;6.43;1.65;;;;;;;19.12;47.01;100463.31;5043025;28;20063;-70
2023/03/30 06:13:45;;;;;;;3.38;1.42;;;;;;;19.10;46.89;100459.94;5013492;28;20048;-69
2023/03/30 06:16:11;;;;;;;8.85;2.28;;;;;;;19.15;47.30;100470.09;5023344;28;20120;-69
2023/03/30 06:18:36;;;;;;;3.15;1.38;;;;;;;19.17;47.12;100469.00;5032168;28;20037;-69
2023/03/30 06:21:05;;;;;;;6.40;1.70;;;;;;;19.15;47.23;100467.44;5035408;28;20050;-69
2023/03/30 06:23:32;;;;;;;6.72;1.90;;;;;;;19.20;47.58;100478.44;5037273;28;20029;-72
2023/03/30 06:25:58;;;;;;;7.20;1.55;;;;;;;19.23;47.91;100472.88;5038206;28;20065;-69
2023/03/30 06:28:23;;;;;;;4.35;1.50;;;;;;;19.22;47.86;100489.72;5030958;28;20037;-70
2023/03/30 06:30:49;;;;;;;4.85;1.58;;;;;;;19.23;47.67;100488.72;5027981;28;20473;-70
2023/03/30 06:33:16;;;;;;;5.28;1.55;;;;;;;19.23;47.85;100479.97;5030862;28;20025;-70
2023/03/30 06:35:49;;;;;;;5.38;1.80;;;;;;;19.21;47.79;100483.56;5029208;28;20039;-68
2023/03/30 06:38:15;;;;;;;6.15;1.63;;;;;;;19.19;47.86;100471.50;5024659;28;20033;-70
2023/03/30 06:40:40;;;;;;;9.20;1.48;;;;;;;19.25;47.99;100486.78;5025373;28;20064;-70
2023/03/30 06:43:07;;;;;;;4.72;1.50;;;;;;;19.26;47.68;100482.31;5028042;28;20037;-70
2023/03/30 06:45:32;;;;;;;6.30;1.75;;;;;;;19.26;47.86;100487.59;5030534;28;20025;-71
2023/03/30 06:47:57;;;;;;;5.35;1.40;;;;;;;19.24;47.67;100487.75;5026934;28;20040;-71
2023/03/30 06:50:23;;;;;;;8.40;1.65;;;;;;;19.27;47.62;100484.00;5032267;28;20456;-69
2023/03/30 06:52:48;;;;;;;3.53;1.52;;;;;;;19.28;48.30;100488.28;5029863;28;20427;-68
2023/03/30 06:55:13;;;;;;;4.28;1.55;;;;;;;19.25;47.81;100472.72;5039100;28;20028;-68
2023/03/30 06:57:39;;;;;;;4.28;1.30;;;;;;;19.27;47.93;100479.53;5036768;28;20036;-69
2023/03/30 07:00:13;;;;;;;4.65;1.13;;;;;;;19.27;48.15;100484.00;5027336;28;20394;-70
2023/03/30 07:02:40;;;;;;;8.02;1.70;;;;;;;19.28;48.30;100490.94;5041825;28;20048;-71
2023/03/30 07:05:06;;;;;;;5.70;1.33;;;;;;;19.27;48.15;100484.00;5031966;28;20067;-70
2023/03/30 07:07:32;;;;;;;3.70;1.23;;;;;;;19.26;47.99;100487.59;5024746;28;20044;-70
2023/03/30 07:09:58;;;;;;;6.20;1.50;;;;;;;19.27;47.89;100494.56;5032132;28;20032;-68
2023/03/30 07:12:23;;;;;;;5.28;1.60;;;;;;;19.30;48.22;100496.94;5028444;28;20449;-68
2023/03/30 07:14:49;;;;;;;4.47;1.33;;;;;;;19.31;48.46;100498.59;5022713;28;20087;-69
2023/03/30 07:17:14;;;;;;;5.47;1.40;;;;;;;19.30;48.34;100503.03;5026395;28;20060;-70
2023/03/30 07:19:39;;;;;;;6.80;1.52;;;;;;;19.32;48.55;100493.16;5025912;28;20064;-69
2023/03/30 07:22:05;;;;;;;5.45;1.80;;;;;;;19.33;48.59;100489.56;5022656;28;20065;-68
2023/03/30 07:24:32;;;;;;;9.35;1.38;;;;;;;19.33;48.70;100489.56;5023807;28;20038;-70
2023/03/30 07:26:58;;;;;;;4.63;1.58;;;;;;;19.33;48.77;100492.19;5037839;28;20404;-67
2023/03/30 07:29:23;;;;;;;7.03;1.80;;;;;;;19.37;48.65;100504.13;5042658;28;20056;-67
2023/03/30 07:31:49;;;;;;;5.65;1.50;;;;;;;19.39;48.83;100507.50;5031566;28;20041;-67
2023/03/30 07:34:15;;;;;;;6.90;1.50;;;;;;;19.37;48.78;100503.31;5050868;28;20056;-69
2023/03/30 07:36:41;;;;;;;4.13;1.23;;;;;;;19.36;48.69;100499.84;5033010;28;20063;-69
2023/03/30 07:39:07;;;;;;;5.90;1.40;;;;;;;19.36;48.61;100499.84;5040168;28;20466;-69
2023/03/30 07:41:32;;;;;;;5.50;1.80;;;;;;;19.37;48.78;100512.06;5035607;28;20070;-68
2023/03/30 07:43:57;;;;;;;4.70;1.33;;;;;;;19.34;48.85;100509.72;5022652;28;20064;-69
2023/03/30 07:46:23;;;;;;;6.18;1.60;;;;;;;19.35;48.94;100513.19;5022416;28;20159;-70
2023/03/30 07:48:48;;;;;;;6.32;1.70;;;;;;;19.38;48.82;100518.19;5026591;28;20042;-69
2023/03/30 07:51:13;;;;;;;4.45;1.45;;;;;;;19.42;48.85;100531.97;5037616;28;20045;-70
2023/03/30 07:53:39;;;;;;;5.95;1.30;;;;;;;19.38;48.79;100526.13;5029501;28;20088;-69
2023/03/30 07:56:05;;;;;;;8.38;1.90;;;;;;;19.38;49.31;100526.13;5021628;28;20026;-70
2023/03/30 07:58:31;;;;;;;5.20;1.50;;;;;;;19.42;49.17;100531.97;5028966;28;20377;-72
2023/03/30 08:00:56;;;;;;;5.70;1.70;;;;;;;19.34;49.02;100527.38;5023900;28;20034;-70
2023/03/30 08:03:22;;;;;;;6.55;1.70;;;;;;;19.38;48.90;100531.41;5029300;28;20061;-70
2023/03/30 08:05:59;;;;;;;3.95;1.45;;;;;;;19.39;48.95;100541.84;5020981;28;20120;-71
2023/03/30 08:08:25;;;;;;;4.57;1.33;;;;;;;19.40;49.18;100550.59;5026110;28;20082;-69
2023/03/30 08:10:51;;;;;;;6.68;1.85;;;;;;;19.38;48.94;100548.09;5026595;28;20044;-68
2023/03/30 08:13:16;;;;;;;6.50;1.70;;;;;;;19.41;48.72;100549.63;5019641;28;20037;-72
2023/03/30 08:15:42;;;;;;;6.75;1.90;;;;;;;19.40;48.79;100548.78;5026339;28;20021;-71
2023/03/30 08:18:07;;;;;;;7.57;1.70;;;;;;;19.42;48.68;100543.34;5025651;28;20390;-68
2023/03/30 08:20:36;;;;;;;5.00;1.40;;;;;;;19.51;48.33;100557.56;5025656;28;20053;-67
2023/03/30 08:23:07;;;;;;;8.50;1.45;;;;;;;19.53;48.36;100559.06;5019967;28;20592;-68
2023/03/30 08:25:32;;;;;;;5.57;1.35;;;;;;;19.59;48.14;100552.38;5021543;28;20039;-67
2023/03/30 08:27:58;;;;;;;8.73;1.70;;;;;;;19.57;48.03;100563.09;5014941;28;20026;-70
2023/03/30 08:30:24;;;;;;;6.90;1.83;;;;;;;19.59;48.17;100557.69;5023474;28;20037;-70
2023/03/30 08:32:52;;;;;;;5.13;1.30;;;;;;;19.63;47.88;100576.72;5017632;28;20078;-68
2023/03/30 08:35:18;;;;;;;8.30;1.70;;;;;;;19.64;47.86;100559.91;5022546;28;20033;-71
2023/03/30 08:37:44;;;;;;;5.78;1.50;;;;;;;19.65;47.40;100551.81;5029153;28;20025;-68
2023/03/30 08:40:14;;;;;;;5.60;1.50;;;;;;;19.64;47.47;100549.31;5009394;28;20041;-72
2023/03/30 08:43:11;;;;;;;7.75;1.60;;;;;;;19.65;47.62;100545.72;5012606;28;20033;-72
2023/03/30 08:45:39;;;;;;;8.63;1.85;;;;;;;19.61;47.63;100544.31;5019833;28;20036;-71
2023/03/30 08:48:15;;;;;;;8.07;1.67;;;;;;;19.56;47.60;100547.38;5013258;28;20112;-69
2023/03/30 08:50:45;;;;;;;5.38;1.85;;;;;;;19.57;47.62;100559.63;5023034;28;20033;-69
2023/03/30 08:53:11;;;;;;;6.47;1.55;;;;;;;19.61;47.54;100554.88;5021792;28;20041;-69
2023/03/30 08:55:49;;;;;;;6.47;1.70;;;;;;;19.60;47.53;100563.78;5019029;28;20099;-72
2023/03/30 08:58:38;;;;;;;7.43;1.77;;;;;;;19.65;47.53;100556.28;5016924;28;20429;-71
2023/03/30 09:01:26;;;;;;;5.47;1.45;;;;;;;19.63;47.42;100555.56;5023578;28;20052;-71
2023/03/30 09:03:58;;;;;;;6.32;1.80;;;;;;;19.70;47.16;100561.97;5024425;28;20448;-69
2023/03/30 09:06:38;;;;;;;5.72;1.63;;;;;;;19.69;47.28;100549.72;5020833;28;20030;-74
2023/03/30 09:09:04;;;;;;;4.82;1.70;;;;;;;19.69;47.13;100545.28;5042677;28;20029;-73
2023/03/30 09:11:34;;;;;;;7.90;1.63;;;;;;;19.71;46.97;100558.34;5030150;28;20044;-75
2023/03/30 09:14:03;;;;;;;5.90;1.40;;;;;;;19.67;47.14;100563.09;5029164;28;20033;-74
2023/03/30 09:16:38;;;;;;;8.43;1.55;;;;;;;19.67;47.19;100580.75;5030525;28;20055;-72
2023/03/30 09:19:08;;;;;;;6.47;1.48;;;;;;;19.63;47.23;100580.22;5029072;28;20043;-71
2023/03/30 09:21:33;;;;;;;8.07;2.05;;;;;;;19.58;47.39;100583.28;5034672;28;20057;-70
2023/03/30 09:24:09;;;;;;;6.85;1.55;;;;;;;19.56;47.32;100589.66;5036056;28;20033;-75
2023/03/30 09:26:47;;;;;;;9.75;1.95;;;;;;;19.57;47.36;100588.72;5036038;28;20037;-71
2023/03/30 09:29:19;;;;;;;10.23;1.85;;;;;;;19.59;47.21;100607.91;5025788;28;20216;-72
2023/03/30 09:31:57;;;;;;;13.00;1.77;;;;;;;19.68;46.81;100600.94;5022255;28;20149;-68
2023/03/30 09:34:33;;;;;;;7.07;1.42;;;;;;;19.60;46.93;100587.56;5029790;28;20025;-70
2023/03/30 09:37:10;;;;;;;9.57;1.90;;;;;;;19.63;46.80;100595.22;5005530;28;20060;-69
2023/03/30 09:39:37;;;;;;;7.82;1.80;;;;;;;19.67;46.73;100584.22;5030318;28;20033;-69
2023/03/30 09:42:17;;;;;;;5.93;1.63;;;;;;;19.63;46.70;100597.88;5032234;28;20064;-69
2023/03/30 09:44:51;;;;;;;5.25;1.65;;;;;;;19.58;46.89;100601.78;5023557;28;20064;-69
2023/03/30 09:47:26;;;;;;;9.27;1.90;;;;;;;19.51;46.90;100578.69;5010433;28;20937;-70
2023/03/30 09:50:19;;;;;;;5.05;1.60;;;;;;;19.57;46.72;100600.09;5026312;28;20174;-71
2023/03/30 09:53:01;;;;;;;5.28;1.65;;;;;;;19.57;46.86;100600.09;5026929;28;20045;-72
2023/03/30 09:55:35;;;;;;;8.25;1.90;;;;;;;19.59;46.64;100599.97;5026356;28;20049;-77
2023/03/30 09:58:17;;;;;;;6.80;1.55;;;;;;;19.63;46.62;100609.28;5027928;28;20466;-71
2023/03/30 10:00:44;;;;;;;8.95;2.00;;;;;;;19.68;45.99;100624.75;5030362;28;20079;-72
2023/03/30 10:03:19;;;;;;;5.15;1.80;;;;;;;19.64;46.36;100613.59;5031410;28;20036;-73
2023/03/30 10:05:58;;;;;;;6.85;1.98;;;;;;;19.68;46.12;100620.28;5033037;28;20037;-72
2023/03/30 10:08:24;;;;;;;7.05;1.88;;;;;;;19.69;46.09;100615.81;5014054;28;20155;-74
2023/03/30 10:10:54;;;;;;;9.23;1.98;;;;;;;19.63;46.21;100625.16;5035339;28;20124;-69
2023/03/30 10:13:27;;;;;;;6.00;1.65;;;;;;;19.60;46.25;100630.72;5030646;28;20060;-71
2023/03/30 10:15:53;;;;;;;6.68;2.10;;;;;;;19.54;46.10;100623.34;5036487;28;20025;-69
2023/03/30 10:18:33;;;;;;;5.93;1.63;;;;;;;19.54;46.11;100629.47;5035905;28;20038;-69
2023/03/30 10:21:05;;;;;;;10.02;2.78;;;;;;;19.51;46.57;100627.09;5030972;28;20076;-71
2023/03/30 10:23:41;;;;;;;12.90;3.60;;;;;;;19.55;46.51;100619.72;5031955;28;20037;-75
2023/03/30 10:26:19;;;;;;;13.85;3.95;;;;;;;19.55;46.84;100617.91;5030872;28;20609;-72
2023/03/30 10:28:55;;;;;;;20.10;6.05;;;;;;;19.58;47.14;100622.06;5032263;28;20040;-73
2023/03/30 10:31:22;;;;;;;22.58;10.82;;;;;;;19.55;47.07;100627.63;5030959;28;20032;-79
2023/03/30 10:33:48;;;;;;;24.10;16.35;;;;;;;19.53;47.16;100633.06;5018902;28;20506;-78
2023/03/30 10:36:17;;;;;;;27.73;18.33;;;;;;;19.42;47.91;100632.38;5035604;28;20084;-75
2023/03/30 10:38:43;;;;;;;29.48;19.42;;;;;;;19.51;47.77;100642.13;5035634;28;20065;-76
2023/03/30 10:41:13;;;;;;;30.58;22.13;;;;;;;19.52;48.20;100639.34;5036034;28;20029;-75
2023/03/30 10:43:40;;;;;;;34.65;25.45;;;;;;;19.51;48.12;100632.38;5017273;28;20481;-76
2023/03/30 10:46:16;;;;;;;34.65;25.70;;;;;;;19.53;48.26;100632.25;5038658;28;20065;-77
2023/03/30 10:49:03;;;;;;;33.65;26.80;;;;;;;19.48;48.36;100630.00;5033919;28;20044;-77
2023/03/30 10:51:54;;;;;;;33.67;27.80;;;;;;;19.53;48.40;100614.56;5038673;28;20041;-73
2023/03/30 10:54:31;;;;;;;35.28;27.23;;;;;;;19.55;48.30;100638.22;5036748;28;20029;-71
2023/03/30 10:57:03;;;;;;;29.88;25.63;;;;;;;19.51;47.81;100621.81;5040001;28;20488;-73
2023/03/30 10:59:53;;;;;;;28.92;23.45;;;;;;;19.49;47.81;100629.06;5032245;28;20037;-73
2023/03/30 11:02:25;;;;;;;31.48;22.60;;;;;;;19.49;47.99;100623.75;5032322;28;20468;-71
2023/03/30 11:05:21;;;;;;;28.80;22.05;;;;;;;19.46;47.93;100621.41;5027771;28;20382;-74
2023/03/30 11:07:53;;;;;;;31.90;19.30;;;;;;;19.47;47.45;100631.00;5030427;28;20075;-73
2023/03/30 11:10:30;;;;;;;27.40;19.65;;;;;;;19.45;47.27;100632.09;5027129;28;20048;-71
2023/03/30 11:13:00;;;;;;;28.33;19.10;;;;;;;19.45;47.24;100627.63;5012521;28;20033;-70
2023/03/30 11:15:32;;;;;;;24.88;18.30;;;;;;;19.45;47.42;100622.34;5036298;28;20178;-71
2023/03/30 11:18:08;;;;;;;26.00;18.45;;;;;;;19.46;47.40;100628.50;5035507;28;20073;-71
2023/03/30 11:20:57;;;;;;;20.98;16.25;;;;;;;19.45;47.19;100625.00;5030365;28;20053;-72
2023/03/30 11:23:42;;;;;;;22.83;16.63;;;;;;;19.44;47.33;100623.34;5019773;28;20045;-72
2023/03/30 11:26:11;;;;;;;20.73;15.10;;;;;;;19.44;47.16;100633.06;5027612;28;20090;-70
2023/03/30 11:28:51;;;;;;;21.98;15.18;;;;;;;19.42;47.09;100627.09;5044051;28;20076;-72
2023/03/30 11:31:29;;;;;;;23.33;14.25;;;;;;;19.44;47.13;100626.00;5034466;28;20072;-72
2023/03/30 11:34:05;;;;;;;19.73;14.25;;;;;;;19.39;46.78;100625.56;5034101;28;20049;-72
2023/03/30 11:36:38;;;;;;;17.52;13.80;;;;;;;19.41;47.25;100628.91;5029521;28;20033;-74
2023/03/30 11:39:12;;;;;;;24.52;13.70;;;;;;;19.45;46.88;100626.81;5031897;28;20063;-72